Time;durP1;ratioP1;P1;durP2;ratioP2;P2;SDS_P1;SDS_P2;PMS_P1;PMS_P2;Temp;Humidity;BMP_temperature;BMP_pressure;BME280_temperature;BME280_humidity;BME280_pressure;Samples;Min_cycle;Max_cycle;Signal;HPM_P1;HPM_P2
2023/10/20 00:01:50;;;;;;;5.95;5.43;;;;;;;;;;5986179;29;20488;-90
2023/10/20 00:04:52;;;;;;;6.38;5.82;;;;;;;;;;5987086;29;20080;-90
2023/10/20 00:07:54;;;;;;;5.95;5.65;;;;;;;;;;5982358;29;20047;-90
2023/10/20 00:11:06;;;;;;;6.32;5.93;;;;;;;;;;5978588;29;20660;-89
2023/10/20 00:14:07;;;;;;;6.80;6.30;;;;;;;;;;5991686;29;20046;-90
2023/10/20 00:17:09;;;;;;;7.10;5.95;;;;;;;;;;5981730;29;20046;-89
2023/10/20 00:20:11;;;;;;;6.47;5.93;;;;;;;;;;5977317;29;20323;-90
2023/10/20 00:23:14;;;;;;;6.28;5.68;;;;;;;;;;5996237;29;20398;-90
2023/10/20 00:26:17;;;;;;;6.55;6.25;;;;;;;;;;5985057;29;20073;-89
2023/10/20 00:29:22;;;;;;;6.80;6.15;;;;;;;;;;5989042;29;20045;-90
2023/10/20 00:32:24;;;;;;;5.53;5.25;;;;;;;;;;5985143;29;20046;-90
2023/10/20 00:35:26;;;;;;;5.80;5.50;;;;;;;;;;5981057;29;20057;-89
2023/10/20 00:38:28;;;;;;;6.15;5.85;;;;;;;;;;5996639;29;20046;-89
2023/10/20 00:41:31;;;;;;;5.75;5.20;;;;;;;;;;6000152;29;20069;-90
2023/10/20 00:44:33;;;;;;;6.82;6.43;;;;;;;;;;5988192;29;20043;-90
2023/10/20 00:47:36;;;;;;;7.18;6.13;;;;;;;;;;5983862;29;20294;-90
2023/10/20 00:50:39;;;;;;;5.95;5.55;;;;;;;;;;5980949;29;20099;-90
2023/10/20 00:53:41;;;;;;;7.82;7.10;;;;;;;;;;6002354;29;20112;-90
2023/10/20 00:56:43;;;;;;;6.70;6.30;;;;;;;;;;5995609;29;20824;-90
2023/10/20 00:59:46;;;;;;;6.32;5.80;;;;;;;;;;5992998;29;20049;-90
2023/10/20 01:02:48;;;;;;;7.30;6.28;;;;;;;;;;5993541;29;20058;-90
2023/10/20 01:05:51;;;;;;;6.40;5.95;;;;;;;;;;5980692;29;20058;-89
2023/10/20 01:08:59;;;;;;;5.63;5.32;;;;;;;;;;5990417;29;20066;-89
2023/10/20 01:12:01;;;;;;;7.50;6.97;;;;;;;;;;5986960;29;20543;-89
2023/10/20 01:15:05;;;;;;;7.15;6.72;;;;;;;;;;5981033;29;20548;-89
2023/10/20 01:18:07;;;;;;;6.38;5.97;;;;;;;;;;5990684;29;20054;-89
2023/10/20 01:21:09;;;;;;;6.30;5.85;;;;;;;;;;5982443;29;20057;-89
2023/10/20 01:24:11;;;;;;;8.30;7.70;;;;;;;;;;5992692;29;20064;-90
2023/10/20 01:27:12;;;;;;;7.35;6.63;;;;;;;;;;5983359;29;20053;-90
2023/10/20 01:30:14;;;;;;;8.63;7.93;;;;;;;;;;5980436;29;20050;-90
2023/10/20 01:33:16;;;;;;;6.82;6.53;;;;;;;;;;5983725;29;20458;-90
2023/10/20 01:36:17;;;;;;;8.73;7.38;;;;;;;;;;5991175;29;20063;-90
2023/10/20 01:39:19;;;;;;;6.68;6.22;;;;;;;;;;5994390;29;20053;-90
2023/10/20 01:42:21;;;;;;;5.95;5.65;;;;;;;;;;6001902;29;20115;-90
2023/10/20 01:45:22;;;;;;;9.05;6.00;;;;;;;;;;5993702;29;20056;-90
2023/10/20 01:48:24;;;;;;;7.68;7.18;;;;;;;;;;5990036;29;20765;-90
2023/10/20 01:51:26;;;;;;;6.70;6.40;;;;;;;;;;5987562;29;20088;-90
2023/10/20 01:54:28;;;;;;;6.45;6.15;;;;;;;;;;5979973;29;20042;-90
2023/10/20 01:57:30;;;;;;;6.47;5.88;;;;;;;;;;5986453;29;20142;-90
2023/10/20 02:00:32;;;;;;;7.07;6.63;;;;;;;;;;5990193;29;20369;-90
2023/10/20 02:03:35;;;;;;;7.65;7.03;;;;;;;;;;5983167;29;20090;-90
2023/10/20 02:06:36;;;;;;;5.03;4.82;;;;;;;;;;5986714;29;20054;-90
2023/10/20 02:09:38;;;;;;;6.13;5.63;;;;;;;;;;5978613;29;20042;-90
2023/10/20 02:12:41;;;;;;;4.78;4.57;;;;;;;;;;5990737;29;20750;-90
2023/10/20 02:15:52;;;;;;;7.25;6.57;;;;;;;;;;5986303;29;20540;-90
2023/10/20 02:18:54;;;;;;;6.40;5.85;;;;;;;;;;5996132;29;20099;-90
2023/10/20 02:21:56;;;;;;;7.20;6.55;;;;;;;;;;5987963;29;20054;-90
2023/10/20 02:24:57;;;;;;;6.60;6.28;;;;;;;;;;5992441;29;20048;-90
2023/10/20 02:27:59;;;;;;;6.97;6.53;;;;;;;;;;5991795;29;20147;-90
2023/10/20 02:31:09;;;;;;;6.80;6.40;;;;;;;;;;5975037;29;20046;-90
2023/10/20 02:34:11;;;;;;;6.80;6.40;;;;;;;;;;5983968;29;20068;-91
2023/10/20 02:37:14;;;;;;;5.60;5.30;;;;;;;;;;5998750;29;20497;-90
2023/10/20 02:40:16;;;;;;;7.68;7.10;;;;;;;;;;5990857;29;20126;-91
2023/10/20 02:43:18;;;;;;;6.20;5.90;;;;;;;;;;5980364;29;20074;-91
2023/10/20 02:46:20;;;;;;;6.90;6.35;;;;;;;;;;5977767;29;20046;-90
2023/10/20 02:49:22;;;;;;;5.80;5.53;;;;;;;;;;5987109;29;20074;-90
2023/10/20 02:52:24;;;;;;;6.65;6.05;;;;;;;;;;5989883;29;20531;-90
2023/10/20 02:55:27;;;;;;;6.53;6.15;;;;;;;;;;5989927;29;20038;-90
2023/10/20 02:58:29;;;;;;;7.18;6.47;;;;;;;;;;5983316;29;20050;-90
2023/10/20 03:01:31;;;;;;;7.22;6.53;;;;;;;;;;5988774;29;20054;-90
2023/10/20 03:04:32;;;;;;;4.85;4.65;;;;;;;;;;5993039;29;20493;-91
2023/10/20 03:07:34;;;;;;;4.85;4.63;;;;;;;;;;5991880;29;20042;-91
2023/10/20 03:10:37;;;;;;;5.28;4.97;;;;;;;;;;5991892;29;20050;-90
2023/10/20 03:13:38;;;;;;;4.95;4.75;;;;;;;;;;5988194;29;20470;-90
2023/10/20 03:16:42;;;;;;;5.75;5.45;;;;;;;;;;5985346;29;20050;-90
2023/10/20 03:19:45;;;;;;;4.85;4.55;;;;;;;;;;5992359;29;20046;-90
2023/10/20 03:22:49;;;;;;;6.85;6.53;;;;;;;;;;5984447;29;20575;-90
2023/10/20 03:25:51;;;;;;;8.25;6.45;;;;;;;;;;5983237;29;20517;-90
2023/10/20 03:28:53;;;;;;;6.22;5.93;;;;;;;;;;6002889;29;20053;-90
2023/10/20 03:31:54;;;;;;;5.68;5.32;;;;;;;;;;5983633;29;20171;-89
2023/10/20 03:34:57;;;;;;;5.60;5.30;;;;;;;;;;5974110;29;20062;-90
2023/10/20 03:38:00;;;;;;;5.80;5.38;;;;;;;;;;5985740;29;20053;-90
2023/10/20 03:41:11;;;;;;;6.53;5.93;;;;;;;;;;5992238;29;20054;-90
2023/10/20 03:44:13;;;;;;;5.60;5.07;;;;;;;;;;5990992;29;20060;-90
2023/10/20 03:47:17;;;;;;;6.13;5.82;;;;;;;;;;5980089;29;20058;-90
2023/10/20 03:50:18;;;;;;;6.53;6.20;;;;;;;;;;5981308;29;20043;-90
2023/10/20 03:53:27;;;;;;;6.72;6.25;;;;;;;;;;5985068;29;20420;-90
2023/10/20 03:56:29;;;;;;;7.15;6.28;;;;;;;;;;5979751;29;20065;-90
2023/10/20 03:59:38;;;;;;;8.40;7.55;;;;;;;;;;5990848;29;20102;-90
2023/10/20 04:02:40;;;;;;;4.88;4.65;;;;;;;;;;5992273;29;20052;-90
2023/10/20 04:05:42;;;;;;;4.70;4.47;;;;;;;;;;6007064;29;20105;-90
2023/10/20 04:08:43;;;;;;;5.93;5.53;;;;;;;;;;5987800;29;20481;-90
2023/10/20 04:11:46;;;;;;;5.50;5.18;;;;;;;;;;5983594;29;20180;-90
2023/10/20 04:14:49;;;;;;;6.32;5.72;;;;;;;;;;6001924;29;20178;-90
2023/10/20 04:17:54;;;;;;;5.35;5.03;;;;;;;;;;5994258;29;20046;-90
2023/10/20 04:20:57;;;;;;;5.00;4.80;;;;;;;;;;5994024;29;20575;-90
2023/10/20 04:23:59;;;;;;;11.63;6.03;;;;;;;;;;5994519;29;20065;-90
2023/10/20 04:27:01;;;;;;;6.07;5.78;;;;;;;;;;6003954;29;20105;-91
2023/10/20 04:43:42;;;;;;;4.95;4.53;;;;;;;;;;5984217;29;20172;-90
2023/10/20 04:53:12;;;;;;;6.30;6.00;;;;;;;;;;5992508;29;20091;-92
2023/10/20 04:59:24;;;;;;;5.65;5.35;;;;;;;;;;5983364;29;20125;-89
2023/10/20 05:02:39;;;;;;;5.07;4.70;;;;;;;;;;5995420;29;20050;-89
2023/10/20 05:05:53;;;;;;;4.28;4.07;;;;;;;;;;5982863;29;20102;-89
2023/10/20 05:08:56;;;;;;;6.03;5.60;;;;;;;;;;5983087;29;20062;-89
2023/10/20 05:11:57;;;;;;;3.50;3.40;;;;;;;;;;5987099;29;20133;-90
2023/10/20 05:14:59;;;;;;;5.10;4.90;;;;;;;;;;5981491;29;20047;-89
2023/10/20 05:18:01;;;;;;;5.50;5.20;;;;;;;;;;5987348;29;20045;-89
2023/10/20 05:21:04;;;;;;;5.70;5.30;;;;;;;;;;5995453;29;20141;-89
2023/10/20 05:24:06;;;;;;;5.18;4.97;;;;;;;;;;5992032;29;20104;-89
2023/10/20 05:27:08;;;;;;;5.10;4.65;;;;;;;;;;5992521;29;20512;-89
2023/10/20 05:30:10;;;;;;;5.10;4.90;;;;;;;;;;5982378;29;20042;-89
2023/10/20 05:33:12;;;;;;;5.03;4.72;;;;;;;;;;5983310;29;20053;-89
2023/10/20 05:36:14;;;;;;;5.13;4.82;;;;;;;;;;5982663;29;20471;-89
2023/10/20 05:39:15;;;;;;;4.53;4.32;;;;;;;;;;5986590;29;20049;-89
2023/10/20 05:42:17;;;;;;;5.63;5.18;;;;;;;;;;6003808;29;20510;-89
2023/10/20 05:45:21;;;;;;;3.85;3.75;;;;;;;;;;5985284;29;20042;-89
2023/10/20 05:48:22;;;;;;;4.68;4.43;;;;;;;;;;5982469;29;20055;-89
2023/10/20 05:51:24;;;;;;;4.68;4.38;;;;;;;;;;5982765;29;20042;-90
2023/10/20 05:54:26;;;;;;;4.82;4.53;;;;;;;;;;5984797;29;20054;-89
2023/10/20 05:57:28;;;;;;;5.00;4.80;;;;;;;;;;5979063;29;20045;-89
2023/10/20 06:00:30;;;;;;;5.85;4.70;;;;;;;;;;5988703;29;20042;-89
2023/10/20 06:03:36;;;;;;;4.75;4.55;;;;;;;;;;6000193;29;20171;-89
2023/10/20 06:06:39;;;;;;;4.88;4.55;;;;;;;;;;5988207;29;20057;-89
2023/10/20 06:09:42;;;;;;;6.15;5.65;;;;;;;;;;5984247;29;20062;-90
2023/10/20 06:12:43;;;;;;;5.32;5.10;;;;;;;;;;5990854;29;20051;-89
2023/10/20 06:15:45;;;;;;;5.25;5.05;;;;;;;;;;5994439;29;20137;-90
2023/10/20 06:18:47;;;;;;;4.90;4.70;;;;;;;;;;5981138;29;20046;-90
2023/10/20 06:21:50;;;;;;;4.68;4.47;;;;;;;;;;6000994;29;20060;-90
2023/10/20 06:24:51;;;;;;;5.70;5.40;;;;;;;;;;5984762;29;20234;-89
2023/10/20 06:27:53;;;;;;;4.68;4.47;;;;;;;;;;5982622;29;20125;-89
2023/10/20 06:31:00;;;;;;;4.78;4.57;;;;;;;;;;5996387;29;20048;-88
2023/10/20 06:34:40;;;;;;;4.53;4.32;;;;;;;;;;5990005;29;20526;-86
2023/10/20 06:37:37;;;;;;;5.32;5.03;;;;;;;;;;5987719;29;20168;-88
2023/10/20 06:40:40;;;;;;;5.57;5.32;;;;;;;;;;6004008;29;20058;-86
2023/10/20 06:43:41;;;;;;;4.97;4.78;;;;;;;;;;5983032;29;20061;-89
2023/10/20 06:46:43;;;;;;;4.53;4.32;;;;;;;;;;5986498;29;20061;-87
2023/10/20 06:49:45;;;;;;;4.82;4.63;;;;;;;;;;5985620;29;20059;-88
2023/10/20 06:52:47;;;;;;;5.82;5.47;;;;;;;;;;5967485;29;20054;-91
2023/10/20 06:55:48;;;;;;;4.55;4.35;;;;;;;;;;5981050;29;20366;-87
2023/10/20 06:59:13;;;;;;;4.72;4.53;;;;;;;;;;6001512;29;20124;-90
2023/10/20 07:02:16;;;;;;;4.97;4.68;;;;;;;;;;6001461;29;20046;-89
2023/10/20 07:05:17;;;;;;;5.10;4.90;;;;;;;;;;5987238;29;20094;-89
2023/10/20 07:08:19;;;;;;;5.28;4.85;;;;;;;;;;5981237;29;20054;-91
2023/10/20 07:11:21;;;;;;;4.40;4.30;;;;;;;;;;5984128;29;20041;-84
2023/10/20 07:14:23;;;;;;;6.05;5.85;;;;;;;;;;5990950;29;20054;-88
2023/10/20 07:17:25;;;;;;;5.07;4.78;;;;;;;;;;5989572;29;20050;-90
2023/10/20 07:20:27;;;;;;;4.60;4.50;;;;;;;;;;5991897;29;20069;-89
2023/10/20 07:23:28;;;;;;;5.30;5.10;;;;;;;;;;5981605;29;20049;-87
2023/10/20 07:26:30;;;;;;;4.78;4.57;;;;;;;;;;5981638;29;20413;-87
2023/10/20 07:29:32;;;;;;;5.93;5.53;;;;;;;;;;5998253;29;20113;-89
2023/10/20 07:32:39;;;;;;;3.80;3.60;;;;;;;;;;5991279;29;20057;-88
2023/10/20 07:35:42;;;;;;;3.95;3.85;;;;;;;;;;5991427;29;20121;-87
2023/10/20 07:38:44;;;;;;;4.68;4.47;;;;;;;;;;6002017;29;20050;-85
2023/10/20 07:41:47;;;;;;;3.88;3.78;;;;;;;;;;5986976;29;20409;-87
2023/10/20 07:44:50;;;;;;;4.22;4.10;;;;;;;;;;6008753;29;20086;-87
2023/10/20 07:47:51;;;;;;;4.80;4.60;;;;;;;;;;5998182;29;20104;-86
2023/10/20 07:50:55;;;;;;;4.93;4.72;;;;;;;;;;6006766;29;20054;-88
2023/10/20 07:53:57;;;;;;;4.57;4.38;;;;;;;;;;6008158;29;20072;-86
2023/10/20 07:56:58;;;;;;;4.50;4.40;;;;;;;;;;5994852;29;20075;-89
2023/10/20 08:00:00;;;;;;;5.65;5.45;;;;;;;;;;5995312;29;20127;-89
2023/10/20 08:03:12;;;;;;;4.63;4.53;;;;;;;;;;5992936;29;20074;-89
2023/10/20 08:06:14;;;;;;;5.30;5.18;;;;;;;;;;5990139;29;20054;-88
2023/10/20 08:09:17;;;;;;;5.47;5.25;;;;;;;;;;5996323;29;20053;-88
2023/10/20 08:12:19;;;;;;;5.35;5.15;;;;;;;;;;5970502;29;20114;-87
2023/10/20 08:15:20;;;;;;;4.32;4.22;;;;;;;;;;5996861;29;20046;-86
2023/10/20 08:18:22;;;;;;;4.18;4.07;;;;;;;;;;5993190;29;20145;-87
2023/10/20 08:21:29;;;;;;;4.55;4.35;;;;;;;;;;5993420;29;20061;-87
2023/10/20 08:24:32;;;;;;;5.20;5.00;;;;;;;;;;5989503;29;20179;-87
2023/10/20 08:27:34;;;;;;;4.07;3.90;;;;;;;;;;5984032;29;20433;-88
2023/10/20 08:30:36;;;;;;;4.22;4.13;;;;;;;;;;5983477;29;20076;-88
2023/10/20 08:33:38;;;;;;;4.40;4.30;;;;;;;;;;5983758;29;20108;-86
2023/10/20 08:36:40;;;;;;;3.78;3.67;;;;;;;;;;5984456;29;20050;-86
2023/10/20 08:39:42;;;;;;;3.72;3.63;;;;;;;;;;5991500;29;20144;-87
2023/10/20 08:42:45;;;;;;;4.07;3.97;;;;;;;;;;5987966;29;20077;-87
2023/10/20 08:45:46;;;;;;;4.65;4.55;;;;;;;;;;5992435;29;20394;-85
2023/10/20 08:48:48;;;;;;;4.60;4.43;;;;;;;;;;5983292;29;20333;-85
2023/10/20 08:51:50;;;;;;;4.07;3.97;;;;;;;;;;5988317;29;20046;-86
2023/10/20 08:54:53;;;;;;;4.25;4.15;;;;;;;;;;6004037;29;20121;-88
2023/10/20 08:57:54;;;;;;;4.43;4.32;;;;;;;;;;5984084;29;20058;-88
2023/10/20 09:00:57;;;;;;;4.30;4.10;;;;;;;;;;5981502;29;20580;-86
2023/10/20 09:04:00;;;;;;;3.97;3.88;;;;;;;;;;5983158;29;20094;-85
2023/10/20 09:07:10;;;;;;;3.65;3.55;;;;;;;;;;5983717;29;20125;-85
2023/10/20 09:10:12;;;;;;;4.45;4.25;;;;;;;;;;5984210;29;20505;-84
2023/10/20 09:13:14;;;;;;;4.45;4.28;;;;;;;;;;5982292;29;20050;-85
2023/10/20 09:16:16;;;;;;;4.47;4.28;;;;;;;;;;5988480;29;20050;-87
2023/10/20 09:19:18;;;;;;;4.78;4.68;;;;;;;;;;5991048;29;20046;-87
2023/10/20 09:22:29;;;;;;;3.95;3.85;;;;;;;;;;5983316;29;20437;-86
2023/10/20 09:25:31;;;;;;;4.57;4.47;;;;;;;;;;5983391;29;20058;-86
2023/10/20 09:28:33;;;;;;;4.35;4.25;;;;;;;;;;5984467;29;20137;-87
2023/10/20 09:31:37;;;;;;;4.03;3.92;;;;;;;;;;5969803;29;20437;-88
2023/10/20 09:34:39;;;;;;;4.18;4.07;;;;;;;;;;5982054;29;20058;-88
2023/10/20 09:37:41;;;;;;;4.25;4.15;;;;;;;;;;5994009;29;20048;-86
2023/10/20 09:40:44;;;;;;;3.88;3.78;;;;;;;;;;5983057;29;20137;-88
2023/10/20 09:43:46;;;;;;;3.67;3.58;;;;;;;;;;5994321;29;20058;-88
2023/10/20 09:47:20;;;;;;;4.00;3.90;;;;;;;;;;5992525;29;20054;-88
2023/10/20 09:50:23;;;;;;;4.10;4.00;;;;;;;;;;5984027;29;20054;-89
2023/10/20 09:53:25;;;;;;;5.00;4.90;;;;;;;;;;5977821;29;20226;-87
2023/10/20 09:56:28;;;;;;;4.30;4.20;;;;;;;;;;5984299;29;20102;-85
2023/10/20 09:59:30;;;;;;;3.92;3.83;;;;;;;;;;5980950;29;20174;-88
2023/10/20 10:02:33;;;;;;;4.10;4.00;;;;;;;;;;5963948;29;20054;-86
2023/10/20 10:05:40;;;;;;;4.05;3.95;;;;;;;;;;5978356;29;20284;-87
2023/10/20 10:08:43;;;;;;;4.90;4.70;;;;;;;;;;5977894;29;20093;-86
2023/10/20 10:11:45;;;;;;;4.28;4.07;;;;;;;;;;5977413;29;20073;-87
2023/10/20 10:15:14;;;;;;;3.80;3.70;;;;;;;;;;5966304;29;20050;-86
2023/10/20 10:18:16;;;;;;;4.00;3.90;;;;;;;;;;5976255;29;20065;-86
2023/10/20 10:21:29;;;;;;;4.18;4.07;;;;;;;;;;5975994;29;20582;-88
2023/10/20 10:24:31;;;;;;;4.10;4.00;;;;;;;;;;5978136;29;20157;-87
2023/10/20 10:27:34;;;;;;;4.15;4.05;;;;;;;;;;5981740;29;20046;-87
2023/10/20 10:30:37;;;;;;;4.35;4.25;;;;;;;;;;5996873;29;20137;-86
2023/10/20 10:33:40;;;;;;;4.70;4.60;;;;;;;;;;5980827;29;20049;-87
2023/10/20 10:36:43;;;;;;;3.83;3.72;;;;;;;;;;5982874;29;20050;-87
2023/10/20 10:39:45;;;;;;;4.82;4.72;;;;;;;;;;5992265;29;20415;-88
2023/10/20 10:42:49;;;;;;;4.65;4.55;;;;;;;;;;6000838;29;20050;-85
2023/10/20 10:45:52;;;;;;;3.80;3.70;;;;;;;;;;5994672;29;20122;-86
2023/10/20 10:49:04;;;;;;;4.25;4.15;;;;;;;;;;5982994;29;20057;-86
2023/10/20 10:52:07;;;;;;;3.78;3.67;;;;;;;;;;5982864;29;20050;-86
2023/10/20 10:55:15;;;;;;;4.60;4.50;;;;;;;;;;5985688;29;20049;-88
2023/10/20 10:58:17;;;;;;;4.75;4.65;;;;;;;;;;5987415;29;20520;-89
2023/10/20 11:01:19;;;;;;;4.20;4.10;;;;;;;;;;5992125;29;20064;-88
2023/10/20 11:04:22;;;;;;;4.70;4.60;;;;;;;;;;5992147;29;20042;-88
2023/10/20 11:07:24;;;;;;;6.50;6.30;;;;;;;;;;5976490;29;20696;-89
2023/10/20 11:10:33;;;;;;;4.65;4.55;;;;;;;;;;5985550;29;20058;-88
2023/10/20 11:13:35;;;;;;;4.63;4.53;;;;;;;;;;5985560;29;20082;-89
2023/10/20 11:16:37;;;;;;;3.97;3.88;;;;;;;;;;5987076;29;20038;-89
2023/10/20 11:19:39;;;;;;;7.22;4.18;;;;;;;;;;5997672;29;20423;-89
2023/10/20 11:22:41;;;;;;;4.47;4.28;;;;;;;;;;5995201;29;20466;-89
2023/10/20 11:25:42;;;;;;;4.18;4.07;;;;;;;;;;5993118;29;20069;-88
2023/10/20 11:28:45;;;;;;;4.05;3.95;;;;;;;;;;5993691;29;20042;-90
2023/10/20 11:31:46;;;;;;;3.72;3.63;;;;;;;;;;5993231;29;20054;-89
2023/10/20 11:34:50;;;;;;;3.67;3.58;;;;;;;;;;5992067;29;20628;-89
2023/10/20 11:37:55;;;;;;;4.18;3.97;;;;;;;;;;5984701;29;20038;-89
2023/10/20 11:40:57;;;;;;;4.20;4.10;;;;;;;;;;5987115;29;20047;-89
2023/10/20 11:43:59;;;;;;;8.60;5.35;;;;;;;;;;5992179;29;20046;-88
2023/10/20 11:47:02;;;;;;;3.88;3.78;;;;;;;;;;5993559;29;20069;-89
2023/10/20 11:50:05;;;;;;;4.40;4.30;;;;;;;;;;5991120;29;20050;-89
2023/10/20 11:53:08;;;;;;;5.22;5.03;;;;;;;;;;5987747;29;20232;-89
2023/10/20 11:56:10;;;;;;;4.15;4.05;;;;;;;;;;5989631;29;20137;-89
2023/10/20 11:59:12;;;;;;;4.63;4.53;;;;;;;;;;5987340;29;20068;-88
2023/10/20 12:02:14;;;;;;;4.05;3.95;;;;;;;;;;5982901;29;20046;-89
2023/10/20 12:05:15;;;;;;;3.92;3.83;;;;;;;;;;5980692;29;20122;-89
2023/10/20 12:08:17;;;;;;;4.00;3.90;;;;;;;;;;5986077;29;20305;-89
2023/10/20 12:11:19;;;;;;;3.80;3.70;;;;;;;;;;5991130;29;20051;-89
2023/10/20 12:14:21;;;;;;;5.22;5.03;;;;;;;;;;5997431;29;20769;-88
2023/10/20 12:17:25;;;;;;;4.65;4.55;;;;;;;;;;5979629;29;20058;-87
2023/10/20 12:20:27;;;;;;;3.83;3.72;;;;;;;;;;5982307;29;20046;-88
2023/10/20 12:23:29;;;;;;;4.05;3.95;;;;;;;;;;5982358;29;20061;-87
2023/10/20 12:26:31;;;;;;;3.90;3.80;;;;;;;;;;5983004;29;20054;-88
2023/10/20 12:29:33;;;;;;;4.43;4.32;;;;;;;;;;5998995;29;20417;-89
2023/10/20 12:32:36;;;;;;;4.85;4.75;;;;;;;;;;5996361;29;20050;-88
2023/10/20 12:35:39;;;;;;;4.80;4.60;;;;;;;;;;5992594;29;20046;-87
2023/10/20 12:38:43;;;;;;;4.00;3.90;;;;;;;;;;5989973;29;20054;-88
2023/10/20 12:41:45;;;;;;;4.40;4.30;;;;;;;;;;5990801;29;20046;-89
2023/10/20 12:44:47;;;;;;;4.38;4.18;;;;;;;;;;5993495;29;20417;-89
2023/10/20 12:47:49;;;;;;;4.18;4.07;;;;;;;;;;5984955;29;20055;-89
2023/10/20 12:50:53;;;;;;;4.60;4.50;;;;;;;;;;5990722;29;20050;-89
2023/10/20 12:53:55;;;;;;;3.92;3.83;;;;;;;;;;5989804;29;20417;-89
2023/10/20 12:56:58;;;;;;;3.75;3.65;;;;;;;;;;5984489;29;20050;-88
2023/10/20 13:00:00;;;;;;;4.05;3.95;;;;;;;;;;5997319;29;20038;-89
2023/10/20 13:03:03;;;;;;;4.25;4.10;;;;;;;;;;5988823;29;20076;-88
2023/10/20 13:06:37;;;;;;;7.57;7.30;;;;;;;;;;5980250;29;20042;-89
2023/10/20 13:10:01;;;;;;;7.25;7.05;;;;;;;;;;5986767;29;20637;-88
2023/10/20 13:13:03;;;;;;;3.60;3.50;;;;;;;;;;5993518;29;20069;-89
2023/10/20 13:16:08;;;;;;;5.00;4.90;;;;;;;;;;5979582;29;20600;-88
2023/10/20 13:19:10;;;;;;;4.57;4.47;;;;;;;;;;5985534;29;20047;-88
2023/10/20 13:22:16;;;;;;;3.90;3.80;;;;;;;;;;5983076;29;20038;-89
2023/10/20 13:25:19;;;;;;;4.15;4.05;;;;;;;;;;5990564;29;20448;-88
2023/10/20 13:28:21;;;;;;;4.13;4.03;;;;;;;;;;5981322;29;20568;-88
2023/10/20 13:31:23;;;;;;;4.15;4.00;;;;;;;;;;5994243;29;20046;-88
2023/10/20 13:34:25;;;;;;;4.65;4.55;;;;;;;;;;5990599;29;20050;-88
2023/10/20 13:37:28;;;;;;;3.97;3.88;;;;;;;;;;5999485;29;20141;-88
2023/10/20 13:40:30;;;;;;;4.20;4.10;;;;;;;;;;5983968;29;20042;-88
2023/10/20 13:43:36;;;;;;;3.80;3.70;;;;;;;;;;5998636;29;20086;-89
2023/10/20 13:46:38;;;;;;;4.20;4.10;;;;;;;;;;5982668;29;20531;-89
2023/10/20 13:49:40;;;;;;;4.82;4.70;;;;;;;;;;5985091;29;20065;-89
2023/10/20 13:52:41;;;;;;;4.47;4.38;;;;;;;;;;6004224;29;20082;-89
2023/10/20 13:55:44;;;;;;;4.20;4.10;;;;;;;;;;5980814;29;20068;-89
2023/10/20 13:58:46;;;;;;;4.97;4.88;;;;;;;;;;5994808;29;20437;-89
2023/10/20 14:01:48;;;;;;;4.07;3.95;;;;;;;;;;5999421;29;20058;-88
2023/10/20 14:04:49;;;;;;;3.90;3.80;;;;;;;;;;5988371;29;20409;-88
2023/10/20 14:07:51;;;;;;;3.63;3.53;;;;;;;;;;5994972;29;20602;-88
2023/10/20 14:10:55;;;;;;;3.33;3.22;;;;;;;;;;5992391;29;20568;-88
2023/10/20 14:13:57;;;;;;;3.90;3.80;;;;;;;;;;5989832;29;20088;-87
2023/10/20 14:17:06;;;;;;;3.75;3.65;;;;;;;;;;5996541;29;20120;-88
2023/10/20 14:20:08;;;;;;;3.90;3.80;;;;;;;;;;5998529;29;20049;-88
2023/10/20 14:23:10;;;;;;;4.20;4.10;;;;;;;;;;5982132;29;20141;-89
2023/10/20 14:26:14;;;;;;;4.90;4.70;;;;;;;;;;5990444;29;20580;-89
2023/10/20 14:29:17;;;;;;;4.00;3.90;;;;;;;;;;5989658;29;20057;-88
2023/10/20 14:32:19;;;;;;;3.80;3.70;;;;;;;;;;5995438;29;20058;-89
2023/10/20 14:35:22;;;;;;;4.25;4.15;;;;;;;;;;5991928;29;20045;-87
2023/10/20 14:38:30;;;;;;;3.80;3.70;;;;;;;;;;5992733;29;20075;-87
2023/10/20 14:41:35;;;;;;;4.10;4.00;;;;;;;;;;5981626;29;20061;-87
2023/10/20 14:44:37;;;;;;;5.82;5.60;;;;;;;;;;5989290;29;20064;-88
2023/10/20 14:47:39;;;;;;;4.43;4.28;;;;;;;;;;5980018;29;20102;-88
2023/10/20 14:50:47;;;;;;;4.00;3.90;;;;;;;;;;5980760;29;20095;-89
2023/10/20 14:53:49;;;;;;;3.97;3.85;;;;;;;;;;5992286;29;20621;-89
2023/10/20 14:56:52;;;;;;;4.07;3.97;;;;;;;;;;5993517;29;20057;-90
2023/10/20 14:59:54;;;;;;;3.75;3.65;;;;;;;;;;5993031;29;20054;-89
2023/10/20 15:02:59;;;;;;;4.05;3.95;;;;;;;;;;5979826;29;20046;-88
2023/10/20 15:06:01;;;;;;;4.68;4.47;;;;;;;;;;5986306;29;20076;-90
2023/10/20 15:09:04;;;;;;;3.92;3.83;;;;;;;;;;5985541;29;20638;-88
2023/10/20 15:12:07;;;;;;;5.50;5.30;;;;;;;;;;5994010;29;20088;-87
2023/10/20 15:15:09;;;;;;;4.38;4.28;;;;;;;;;;5990646;29;20042;-88
2023/10/20 15:18:11;;;;;;;5.07;4.88;;;;;;;;;;5986192;29;20054;-90
2023/10/20 15:21:15;;;;;;;4.38;4.28;;;;;;;;;;5991439;29;20057;-89
2023/10/20 15:24:26;;;;;;;4.65;4.55;;;;;;;;;;5985209;29;20039;-90
2023/10/20 15:27:28;;;;;;;4.30;4.20;;;;;;;;;;5986039;29;20053;-90
2023/10/20 15:30:29;;;;;;;4.13;3.97;;;;;;;;;;5994393;29;20833;-89
2023/10/20 15:33:36;;;;;;;3.70;3.60;;;;;;;;;;5984822;29;20579;-89
2023/10/20 15:36:48;;;;;;;4.10;4.00;;;;;;;;;;5981242;29;20070;-90
2023/10/20 15:39:51;;;;;;;3.90;3.80;;;;;;;;;;5994312;29;20053;-90
2023/10/20 15:43:08;;;;;;;4.20;4.10;;;;;;;;;;5992685;29;20049;-90
2023/10/20 15:46:13;;;;;;;5.20;4.93;;;;;;;;;;5996926;29;20090;-90
2023/10/20 15:49:17;;;;;;;4.10;4.00;;;;;;;;;;5998811;29;20042;-89
2023/10/20 15:52:20;;;;;;;3.90;3.80;;;;;;;;;;5990003;29;20062;-89
2023/10/20 15:55:22;;;;;;;4.70;4.50;;;;;;;;;;5989050;29;20509;-90
2023/10/20 15:58:24;;;;;;;3.92;3.83;;;;;;;;;;5995574;29;20042;-89
2023/10/20 16:01:28;;;;;;;5.43;5.15;;;;;;;;;;5991447;29;20038;-90
2023/10/20 16:04:36;;;;;;;4.47;4.28;;;;;;;;;;5986882;29;20106;-89
2023/10/20 16:07:38;;;;;;;4.13;4.03;;;;;;;;;;5994786;29;20058;-90
2023/10/20 16:10:41;;;;;;;4.65;4.55;;;;;;;;;;5994835;29;20125;-90
2023/10/20 16:13:44;;;;;;;4.25;4.15;;;;;;;;;;5986564;29;20057;-90
2023/10/20 16:16:45;;;;;;;5.00;4.70;;;;;;;;;;5988192;29;20097;-90
2023/10/20 16:19:47;;;;;;;3.75;3.65;;;;;;;;;;5998469;29;20447;-89
2023/10/20 16:22:49;;;;;;;4.22;4.03;;;;;;;;;;5996455;29;20046;-91
2023/10/20 16:25:51;;;;;;;4.15;4.05;;;;;;;;;;5993627;29;20046;-89
2023/10/20 16:28:56;;;;;;;5.00;4.80;;;;;;;;;;5995691;29;20045;-89
2023/10/20 16:31:58;;;;;;;4.75;4.43;;;;;;;;;;5987076;29;20103;-90
2023/10/20 16:35:00;;;;;;;4.80;4.63;;;;;;;;;;5989798;29;20046;-90
2023/10/20 16:38:02;;;;;;;5.25;5.03;;;;;;;;;;5993648;29;20042;-90
2023/10/20 16:41:04;;;;;;;4.53;4.32;;;;;;;;;;5985362;29;20140;-90
2023/10/20 16:44:13;;;;;;;5.15;4.75;;;;;;;;;;5993915;29;20049;-90
2023/10/20 16:47:15;;;;;;;4.32;4.22;;;;;;;;;;5997753;29;20567;-91
2023/10/20 16:50:16;;;;;;;4.78;4.68;;;;;;;;;;5986021;29;20042;-90
2023/10/20 16:53:18;;;;;;;4.50;4.30;;;;;;;;;;5992394;29;20054;-90
2023/10/20 16:56:20;;;;;;;5.30;5.07;;;;;;;;;;5993372;29;20046;-90
2023/10/20 16:59:25;;;;;;;5.43;5.22;;;;;;;;;;5990654;29;20065;-90
2023/10/20 17:02:27;;;;;;;5.38;5.18;;;;;;;;;;5994854;29;20034;-90
2023/10/20 17:05:29;;;;;;;4.32;4.15;;;;;;;;;;5983708;29;20062;-90
2023/10/20 17:08:32;;;;;;;6.15;5.85;;;;;;;;;;5988771;29;20518;-90
2023/10/20 17:11:37;;;;;;;5.82;5.53;;;;;;;;;;5990531;29;20053;-91
2023/10/20 17:14:39;;;;;;;5.13;4.93;;;;;;;;;;5991192;29;20257;-91
2023/10/20 17:17:41;;;;;;;5.95;5.60;;;;;;;;;;5978330;29;20488;-91
2023/10/20 17:20:43;;;;;;;4.80;4.60;;;;;;;;;;5986038;29;20092;-90
2023/10/20 17:23:46;;;;;;;5.10;4.90;;;;;;;;;;5986690;29;20060;-91
2023/10/20 17:26:49;;;;;;;4.22;4.13;;;;;;;;;;5984960;29;20050;-91
2023/10/20 17:29:57;;;;;;;5.70;5.50;;;;;;;;;;5987705;29;20053;-91
2023/10/20 17:32:59;;;;;;;5.35;5.15;;;;;;;;;;5993055;29;20062;-91
2023/10/20 17:36:03;;;;;;;5.78;5.57;;;;;;;;;;5973924;29;20147;-90
2023/10/20 17:39:06;;;;;;;4.97;4.78;;;;;;;;;;5987120;29;20038;-91
2023/10/20 17:42:08;;;;;;;4.72;4.63;;;;;;;;;;5991790;29;20038;-91
2023/10/20 17:45:10;;;;;;;5.07;4.90;;;;;;;;;;5993925;29;20488;-93
2023/10/20 17:48:13;;;;;;;5.80;5.50;;;;;;;;;;5990352;29;20513;-91
2023/10/20 17:51:16;;;;;;;5.72;5.53;;;;;;;;;;5991024;29;20126;-91
2023/10/20 17:54:21;;;;;;;5.57;5.38;;;;;;;;;;5985992;29;20198;-91
2023/10/20 17:57:24;;;;;;;5.35;5.15;;;;;;;;;;5980527;29;20335;-90
2023/10/20 18:00:26;;;;;;;6.13;5.70;;;;;;;;;;5985263;29;20050;-90
2023/10/20 18:03:28;;;;;;;5.60;5.30;;;;;;;;;;5985219;29;20150;-90
2023/10/20 18:06:33;;;;;;;7.72;5.93;;;;;;;;;;5985438;29;20059;-90
2023/10/20 18:09:36;;;;;;;5.70;5.50;;;;;;;;;;5987795;29;20564;-91
2023/10/20 18:12:38;;;;;;;6.00;5.80;;;;;;;;;;5987520;29;20499;-90
2023/10/20 18:15:42;;;;;;;6.40;6.10;;;;;;;;;;5983210;29;20070;-90
2023/10/20 18:18:45;;;;;;;6.20;5.95;;;;;;;;;;5979457;29;20098;-91
2023/10/20 18:21:49;;;;;;;5.57;5.38;;;;;;;;;;5981719;29;20140;-91
2023/10/20 18:24:51;;;;;;;6.25;5.95;;;;;;;;;;5986923;29;20057;-91
2023/10/20 18:27:53;;;;;;;6.40;6.10;;;;;;;;;;5985298;29;20065;-91
2023/10/20 18:30:55;;;;;;;5.88;5.57;;;;;;;;;;5990242;29;20046;-90
2023/10/20 18:33:57;;;;;;;7.20;6.80;;;;;;;;;;5989063;29;20117;-92
2023/10/20 18:36:59;;;;;;;5.90;5.65;;;;;;;;;;5989865;29;20050;-91
2023/10/20 18:40:01;;;;;;;6.07;5.78;;;;;;;;;;5981562;29;20073;-91
2023/10/20 18:43:03;;;;;;;6.40;5.93;;;;;;;;;;5991394;29;20049;-91